In Rescue
 
Open Full Screen Window  High Contrast Mode
Wind Gusting 00 knots
03
May 20, 2019 1:32 PM CDT
Weather Information
Wind Direction
  250 °
Wind Speed
  03 kt (3 mph)
Wind Gust
  00 kt (0 mph)
Altimeter
30.17 in
Visibility
10 SM
Temperature
15° C
59° F
Dewpoint
00° C
32° F
Humidity
36%
1hr Rain Fall
00.00 in.
24hr Rain Fall
00.01 in.
Sky Condition
Clear
VFR

METAR KHZX 201832Z AUTO 25003KT 10SM CLR 15/00 A3017 RMK AO2

FAA Disclaimer: The data displayed is for advisory purposes only and is not to be used for flight planning or operations.